createdAt,value
2023-05-11T00:01:50.244Z,99138.84
2023-05-11T00:04:53.832Z,99142.03
2023-05-11T00:07:57.621Z,99137.13
2023-05-11T00:11:02.961Z,99140.53
2023-05-11T00:14:09.155Z,99133.41
2023-05-11T00:17:13.244Z,99134.50
2023-05-11T00:20:17.120Z,99136.22
2023-05-11T00:23:21.076Z,99129.84
2023-05-11T00:26:26.922Z,99133.09
2023-05-11T00:29:30.744Z,99125.03
2023-05-11T00:32:34.443Z,99128.00
2023-05-11T00:35:38.042Z,99132.03
2023-05-11T00:38:41.791Z,99132.84
2023-05-11T00:41:46.801Z,99136.34
2023-05-11T00:44:50.429Z,99137.13
2023-05-11T00:47:54.473Z,99131.25
2023-05-11T00:50:59.524Z,99132.34
2023-05-11T00:54:03.544Z,99133.84
2023-05-11T00:57:08.345Z,99135.06
2023-05-11T01:00:12.748Z,99126.19
2023-05-11T01:03:16.906Z,99128.16
2023-05-11T01:06:29.238Z,99131.31
2023-05-11T01:09:45.587Z,99134.44
2023-05-11T01:12:58.684Z,99130.94
2023-05-11T01:16:08.353Z,99124.41
2023-05-11T01:19:19.777Z,99121.75
2023-05-11T01:22:35.448Z,99128.38
2023-05-11T01:25:58.588Z,99123.25
2023-05-11T01:29:51.898Z,99124.13
2023-05-11T01:33:02.053Z,99126.47
2023-05-11T01:36:10.554Z,99129.03
2023-05-11T01:39:17.396Z,99132.09
2023-05-11T01:43:11.346Z,99128.75
2023-05-11T01:46:34.520Z,99134.44
2023-05-11T01:49:45.630Z,99130.44
2023-05-11T01:52:52.418Z,99131.31
2023-05-11T01:55:58.311Z,99137.19
2023-05-11T01:59:03.938Z,99144.75
2023-05-11T02:02:08.764Z,99137.75
2023-05-11T02:05:14.075Z,99140.66
2023-05-11T02:08:20.023Z,99134.81
2023-05-11T02:11:25.194Z,99133.56
2023-05-11T02:14:34.340Z,99135.84
2023-05-11T02:17:41.059Z,99136.13
2023-05-11T02:20:48.292Z,99132.69
2023-05-11T02:23:53.410Z,99133.63
2023-05-11T02:26:59.087Z,99132.59
2023-05-11T02:30:03.157Z,99130.25
2023-05-11T02:33:09.986Z,99139.78
2023-05-11T02:36:20.741Z,99135.91
2023-05-11T02:39:30.825Z,99143.63
2023-05-11T02:42:40.047Z,99143.38
2023-05-11T02:45:46.399Z,99136.84
2023-05-11T02:48:54.769Z,99143.19
2023-05-11T02:52:04.839Z,99145.84
2023-05-11T02:55:13.337Z,99141.59
2023-05-11T02:58:17.906Z,99137.31
2023-05-11T03:01:26.860Z,99147.22
2023-05-11T03:04:32.632Z,99147.69
2023-05-11T03:07:38.368Z,99147.22
2023-05-11T03:10:42.599Z,99135.72
2023-05-11T03:13:47.379Z,99145.72
2023-05-11T03:16:53.810Z,99139.03
2023-05-11T03:19:59.451Z,99136.75
2023-05-11T03:23:06.121Z,99145.94
2023-05-11T03:26:10.961Z,99146.78
2023-05-11T03:29:18.326Z,99145.81
2023-05-11T03:32:22.104Z,99143.44
2023-05-11T03:35:28.763Z,99151.03
2023-05-11T03:38:36.272Z,99144.53
2023-05-11T03:41:41.403Z,99142.38
2023-05-11T03:44:50.577Z,99149.63
2023-05-11T03:47:56.653Z,99147.19
2023-05-11T03:51:01.053Z,99139.50
2023-05-11T03:54:07.913Z,99149.13
2023-05-11T03:57:12.168Z,99143.28
2023-05-11T04:00:19.061Z,99145.44
2023-05-11T04:03:23.978Z,99139.16
2023-05-11T04:06:27.903Z,99145.41
2023-05-11T04:09:45.574Z,99146.81
2023-05-11T04:12:49.117Z,99149.00
2023-05-11T04:15:54.389Z,99146.19
2023-05-11T04:18:58.320Z,99145.72
2023-05-11T04:22:02.295Z,99150.66
2023-05-11T04:25:08.527Z,99149.28
2023-05-11T04:28:14.481Z,99151.41
2023-05-11T04:31:18.180Z,99149.75
2023-05-11T04:34:22.428Z,99148.16
2023-05-11T04:37:26.388Z,99154.22
2023-05-11T04:43:36.794Z,99160.34
2023-05-11T04:46:41.160Z,99154.09
2023-05-11T04:49:44.782Z,99157.06
2023-05-11T04:52:48.710Z,99161.56
2023-05-11T04:55:54.792Z,99159.22
2023-05-11T04:58:58.543Z,99158.53
2023-05-11T05:02:02.098Z,99158.88
2023-05-11T05:05:06.378Z,99162.63
2023-05-11T05:08:09.789Z,99161.69
2023-05-11T05:11:14.786Z,99165.84
2023-05-11T05:14:18.473Z,99169.94
2023-05-11T05:17:21.878Z,99168.09
2023-05-11T05:20:25.692Z,99175.16
2023-05-11T05:23:29.075Z,99175.19
2023-05-11T05:26:34.207Z,99168.19
2023-05-11T05:29:38.152Z,99171.91
2023-05-11T05:32:42.422Z,99175.84
2023-05-11T05:35:46.942Z,99178.22
2023-05-11T05:38:52.486Z,99180.25
2023-05-11T05:41:57.854Z,99177.50
2023-05-11T05:45:02.431Z,99183.97
2023-05-11T05:48:09.862Z,99184.06
2023-05-11T05:51:13.680Z,99190.84
2023-05-11T05:54:26.170Z,99186.91
2023-05-11T05:57:32.024Z,99185.28
2023-05-11T06:00:36.616Z,99185.78
2023-05-11T06:03:45.324Z,99180.94
2023-05-11T06:06:49.050Z,99187.91
2023-05-11T06:09:52.864Z,99190.47
2023-05-11T06:12:57.876Z,99188.91
2023-05-11T06:16:04.304Z,99193.03
2023-05-11T06:19:10.635Z,99184.28
2023-05-11T06:22:14.203Z,99190.13
2023-05-11T06:25:17.971Z,99198.91
2023-05-11T06:28:25.463Z,99193.50
2023-05-11T06:31:34.325Z,99199.91
2023-05-11T06:34:39.487Z,99201.47
2023-05-11T06:37:43.392Z,99200.25
2023-05-11T06:40:46.993Z,99202.03
2023-05-11T06:43:51.845Z,99201.72
2023-05-11T06:46:59.106Z,99210.66
2023-05-11T06:50:03.595Z,99205.75
2023-05-11T06:53:10.747Z,99198.25
2023-05-11T06:56:14.484Z,99205.66
2023-05-11T06:59:19.804Z,99202.53
2023-05-11T07:02:23.660Z,99204.00
2023-05-11T07:05:28.216Z,99209.03
2023-05-11T07:08:31.947Z,99207.50
2023-05-11T07:11:35.834Z,99209.22
2023-05-11T07:14:41.177Z,99206.69
2023-05-11T07:17:47.860Z,99203.59
2023-05-11T07:20:51.615Z,99200.59
2023-05-11T07:23:55.310Z,99204.00
2023-05-11T07:26:58.971Z,99198.19
2023-05-11T07:30:07.794Z,99210.34
2023-05-11T07:33:11.414Z,99210.31
2023-05-11T07:36:15.123Z,99207.06
2023-05-11T07:39:20.933Z,99211.19
2023-05-11T07:42:24.421Z,99206.78
2023-05-11T07:45:29.461Z,99205.75
2023-05-11T07:48:33.449Z,99207.00
2023-05-11T07:51:37.190Z,99210.84
2023-05-11T07:54:41.131Z,99206.75
2023-05-11T07:57:44.691Z,99208.19
2023-05-11T08:00:49.707Z,99210.19
2023-05-11T08:03:53.686Z,99212.09
2023-05-11T08:06:58.419Z,99210.97
2023-05-11T08:10:02.279Z,99215.34
2023-05-11T08:13:06.399Z,99210.38
2023-05-11T08:16:12.092Z,99203.91
2023-05-11T08:19:15.859Z,99203.28
2023-05-11T08:22:19.753Z,99205.84
2023-05-11T08:25:23.296Z,99199.19
2023-05-11T08:28:26.984Z,99198.91
2023-05-11T08:31:31.955Z,99197.91
2023-05-11T08:34:36.014Z,99205.88
2023-05-11T08:37:39.697Z,99196.81
2023-05-11T08:40:48.185Z,99193.00
2023-05-11T08:43:51.965Z,99193.94
2023-05-11T08:47:18.937Z,99194.00
2023-05-11T08:50:24.943Z,99185.75
2023-05-11T08:53:28.499Z,99188.53
2023-05-11T08:56:33.667Z,99190.56
2023-05-11T08:59:38.371Z,99191.97
2023-05-11T09:02:44.149Z,99188.31
2023-05-11T09:05:49.336Z,99194.84
2023-05-11T09:08:53.214Z,99194.16
2023-05-11T09:11:58.857Z,99179.22
2023-05-11T09:15:02.806Z,99182.38
2023-05-11T09:18:08.755Z,99183.13
2023-05-11T09:21:14.228Z,99189.66
2023-05-11T09:24:17.855Z,99179.06
2023-05-11T09:27:21.697Z,99188.53
2023-05-11T09:30:25.686Z,99197.00
2023-05-11T09:33:30.711Z,99188.69
2023-05-11T09:36:34.186Z,99182.09
2023-05-11T09:39:44.672Z,99184.00
2023-05-11T09:43:01.608Z,99183.53
2023-05-11T09:46:07.942Z,99178.91
2023-05-11T09:49:13.814Z,99190.84
2023-05-11T09:52:19.217Z,99176.19
2023-05-11T09:55:22.932Z,99177.44
2023-05-11T09:58:47.382Z,99171.34
2023-05-11T10:01:51.279Z,99172.72
2023-05-11T10:04:58.397Z,99170.69
2023-05-11T10:08:04.135Z,99165.09
2023-05-11T10:11:08.795Z,99169.97
2023-05-11T10:14:13.616Z,99161.78
2023-05-11T10:17:18.207Z,99161.16
2023-05-11T10:20:23.701Z,99159.19
2023-05-11T10:23:30.248Z,99144.09
2023-05-11T10:26:35.231Z,99153.13
2023-05-11T10:29:39.216Z,99162.34
2023-05-11T10:32:43.885Z,99154.09
2023-05-11T10:35:50.332Z,99153.22
2023-05-11T10:38:55.390Z,99147.25
2023-05-11T10:42:09.862Z,99156.91
2023-05-11T10:45:24.572Z,99139.47
2023-05-11T10:48:54.794Z,99142.16
2023-05-11T10:52:37.593Z,99136.06
2023-05-11T10:56:01.704Z,99141.19
2023-05-11T10:59:31.745Z,99141.66
2023-05-11T11:02:37.395Z,99136.53
2023-05-11T11:05:43.949Z,99123.72
2023-05-11T11:08:59.464Z,99128.50
2023-05-11T11:12:11.318Z,99123.84
2023-05-11T11:15:14.930Z,99117.47
2023-05-11T11:18:22.628Z,99125.09
2023-05-11T11:21:42.910Z,99125.19
2023-05-11T11:24:48.683Z,99120.41
2023-05-11T11:28:02.752Z,99123.19
2023-05-11T11:31:26.051Z,99129.81
2023-05-11T11:34:37.756Z,99137.44
2023-05-11T11:38:02.218Z,99123.84
2023-05-11T11:41:09.757Z,99122.66
2023-05-11T11:44:22.504Z,99123.44
2023-05-11T11:47:27.131Z,99128.13
2023-05-11T11:50:30.901Z,99121.31
2023-05-11T11:54:08.968Z,99124.94
2023-05-11T11:57:49.383Z,99117.88
2023-05-11T12:00:53.814Z,99120.41
2023-05-11T12:04:41.013Z,99119.19
2023-05-11T12:07:46.499Z,99116.09
2023-05-11T12:10:55.792Z,99116.72
2023-05-11T12:14:01.199Z,99113.38
2023-05-11T12:17:08.517Z,99116.69
2023-05-11T12:20:18.157Z,99114.31
2023-05-11T12:23:22.511Z,99106.94
2023-05-11T12:26:27.706Z,99110.09
2023-05-11T12:29:32.745Z,99107.97
2023-05-11T12:32:36.465Z,99104.06
2023-05-11T12:35:43.087Z,99101.16
2023-05-11T12:38:47.321Z,99098.56
2023-05-11T12:41:52.034Z,99098.75
2023-05-11T12:44:57.599Z,99091.97
2023-05-11T12:48:01.985Z,99095.84
2023-05-11T12:51:05.849Z,99086.84
2023-05-11T12:54:10.100Z,99085.81
2023-05-11T12:57:25.130Z,99086.53
2023-05-11T13:00:30.206Z,99081.28
2023-05-11T13:03:36.198Z,99094.66
2023-05-11T13:06:40.281Z,99076.72
2023-05-11T13:09:43.852Z,99091.63
2023-05-11T13:12:51.946Z,99082.28
2023-05-11T13:15:57.785Z,99070.34
2023-05-11T13:19:02.639Z,99072.59
2023-05-11T13:22:07.179Z,99066.31
2023-05-11T13:25:11.121Z,99067.53
2023-05-11T13:28:16.394Z,99068.88
2023-05-11T13:31:21.764Z,99056.38
2023-05-11T13:34:27.203Z,99056.22
2023-05-11T13:37:30.945Z,99059.88
2023-05-11T13:40:35.150Z,99053.41
2023-05-11T13:43:39.210Z,99053.28
2023-05-11T13:46:44.463Z,99045.97
2023-05-11T13:49:48.285Z,99045.34
2023-05-11T13:52:52.388Z,99041.06
2023-05-11T13:55:56.471Z,99042.00
2023-05-11T13:59:03.139Z,99042.38
2023-05-11T14:02:08.798Z,99042.22
2023-05-11T14:05:13.466Z,99043.50
2023-05-11T14:08:17.364Z,99036.94
2023-05-11T14:11:21.205Z,99040.91
2023-05-11T14:14:24.830Z,99034.50
2023-05-11T14:17:32.877Z,99041.09
2023-05-11T14:20:38.778Z,99029.44
2023-05-11T14:23:53.143Z,99032.91
2023-05-11T14:27:07.651Z,99037.81
2023-05-11T14:30:12.378Z,99032.06
2023-05-11T14:33:17.567Z,99018.41
2023-05-11T14:36:21.770Z,99025.63
2023-05-11T14:39:26.466Z,99021.59
2023-05-11T14:42:30.598Z,99026.03
2023-05-11T14:45:34.354Z,99016.22
2023-05-11T14:48:39.592Z,99024.53
2023-05-11T14:51:43.158Z,99024.22
2023-05-11T14:54:46.567Z,99016.53
2023-05-11T14:57:50.151Z,99011.16
2023-05-11T15:00:53.920Z,99014.88
2023-05-11T15:03:59.655Z,99018.06
2023-05-11T15:07:03.323Z,99021.56
2023-05-11T15:10:07.817Z,99017.97
2023-05-11T15:13:11.463Z,99015.13
2023-05-11T15:16:17.734Z,99019.75
2023-05-11T15:19:23.243Z,99019.94
2023-05-11T15:22:27.623Z,99015.00
2023-05-11T15:25:31.637Z,99018.72
2023-05-11T15:28:35.475Z,99018.84
2023-05-11T15:31:40.512Z,99025.03
2023-05-11T15:34:58.705Z,99026.50
2023-05-11T15:38:04.495Z,99029.44
2023-05-11T15:41:09.033Z,99024.78
2023-05-11T15:44:13.483Z,99027.50
2023-05-11T15:47:17.804Z,99030.00
2023-05-11T15:50:23.566Z,99030.44
2023-05-11T15:53:28.353Z,99033.50
2023-05-11T15:56:31.945Z,99036.25
2023-05-11T15:59:35.651Z,99034.09
2023-05-11T16:02:39.436Z,99036.63
2023-05-11T16:05:44.963Z,99033.59
2023-05-11T16:08:48.974Z,99040.31
2023-05-11T16:11:52.574Z,99031.22
2023-05-11T16:14:58.833Z,99037.16
2023-05-11T16:18:04.884Z,99032.41
2023-05-11T16:21:10.706Z,99037.13
2023-05-11T16:24:14.993Z,99032.25
2023-05-11T16:27:19.422Z,99034.94
2023-05-11T16:30:25.934Z,99030.38
2023-05-11T16:33:29.860Z,99033.94
2023-05-11T16:36:35.552Z,99034.47
2023-05-11T16:39:39.336Z,99039.63
2023-05-11T16:42:43.234Z,99040.03
2023-05-11T16:45:47.072Z,99045.09
2023-05-11T16:48:50.840Z,99038.38
2023-05-11T16:51:55.871Z,99041.19
2023-05-11T16:55:00.370Z,99044.56
2023-05-11T16:58:04.098Z,99047.94
2023-05-11T17:01:07.752Z,99043.41
2023-05-11T17:04:12.186Z,99046.38
2023-05-11T17:07:17.614Z,99039.97
2023-05-11T17:10:21.589Z,99049.22
2023-05-11T17:13:25.385Z,99039.34
2023-05-11T17:16:29.021Z,99045.03
2023-05-11T17:19:33.327Z,99047.78
2023-05-11T17:22:38.576Z,99049.03
2023-05-11T17:25:44.041Z,99052.00
2023-05-11T17:28:48.147Z,99055.16
2023-05-11T17:31:52.574Z,99053.59
2023-05-11T17:34:56.500Z,99057.09
2023-05-11T17:38:01.920Z,99053.50
2023-05-11T17:41:06.060Z,99063.84
2023-05-11T17:44:09.597Z,99067.03
2023-05-11T17:47:13.285Z,99075.22
2023-05-11T17:50:17.392Z,99066.31
2023-05-11T17:53:22.362Z,99072.38
2023-05-11T17:56:25.882Z,99070.28
2023-05-11T17:59:29.644Z,99066.34
2023-05-11T18:02:33.656Z,99077.84
2023-05-11T18:05:48.089Z,99076.41
2023-05-11T18:08:54.145Z,99082.09
2023-05-11T18:11:57.728Z,99080.25
2023-05-11T18:15:01.678Z,99090.03
2023-05-11T18:18:06.527Z,99100.63
2023-05-11T18:21:11.860Z,99098.91
2023-05-11T18:24:18.414Z,99104.41
2023-05-11T18:27:22.116Z,99098.50
2023-05-11T18:30:26.071Z,99106.25
2023-05-11T18:33:29.889Z,99108.88
2023-05-11T18:36:34.717Z,99111.94
2023-05-11T18:39:40.035Z,99112.22
2023-05-11T18:42:43.776Z,99120.09
2023-05-11T18:45:47.554Z,99121.44
2023-05-11T18:48:53.056Z,99121.44
2023-05-11T18:51:57.820Z,99125.75
2023-05-11T18:55:02.738Z,99134.31
2023-05-11T18:58:06.259Z,99134.06
2023-05-11T19:01:10.182Z,99137.34
2023-05-11T19:04:13.754Z,99138.16
2023-05-11T19:07:19.890Z,99135.13
2023-05-11T19:10:25.327Z,99146.38
2023-05-11T19:13:29.002Z,99149.00
2023-05-11T19:16:36.023Z,99151.53
2023-05-11T19:19:40.705Z,99155.91
2023-05-11T19:22:44.188Z,99160.56
2023-05-11T19:25:49.288Z,99159.38
2023-05-11T19:28:52.944Z,99161.41
2023-05-11T19:31:56.773Z,99157.41
2023-05-11T19:35:01.277Z,99159.03
2023-05-11T19:38:06.378Z,99166.91
2023-05-11T19:41:11.408Z,99161.75
2023-05-11T19:44:15.093Z,99164.22
2023-05-11T19:47:18.842Z,99161.41
2023-05-11T19:50:24.427Z,99161.31
2023-05-11T19:53:28.690Z,99162.53
2023-05-11T19:56:34.117Z,99166.88
2023-05-11T19:59:38.070Z,99164.03
2023-05-11T20:02:42.100Z,99170.22
2023-05-11T20:05:45.651Z,99163.53
2023-05-11T20:08:49.114Z,99166.25
2023-05-11T20:11:54.055Z,99170.63
2023-05-11T20:14:57.575Z,99171.16
2023-05-11T20:18:03.089Z,99175.75
2023-05-11T20:21:07.119Z,99179.16
2023-05-11T20:24:10.945Z,99178.06
2023-05-11T20:27:16.015Z,99175.78
2023-05-11T20:30:20.667Z,99182.94
2023-05-11T20:36:30.754Z,99178.81
2023-05-11T20:39:34.201Z,99173.84
2023-05-11T20:42:42.617Z,99180.00
2023-05-11T20:45:46.265Z,99177.47
2023-05-11T20:48:51.928Z,99167.69
2023-05-11T20:51:55.778Z,99176.38
2023-05-11T20:54:59.500Z,99175.69
2023-05-11T20:58:05.154Z,99177.53
2023-05-11T21:01:08.776Z,99175.44
2023-05-11T21:04:12.234Z,99178.38
2023-05-11T21:07:15.784Z,99175.78
2023-05-11T21:10:19.627Z,99177.91
2023-05-11T21:13:25.078Z,99175.22
2023-05-11T21:16:28.811Z,99179.81
2023-05-11T21:19:32.349Z,99176.94
2023-05-11T21:22:36.550Z,99183.31
2023-05-11T21:25:41.672Z,99176.03
2023-05-11T21:28:46.624Z,99183.97
2023-05-11T21:31:50.172Z,99180.69
2023-05-11T21:34:53.608Z,99183.50
2023-05-11T21:37:57.669Z,99188.84
2023-05-11T21:41:01.064Z,99191.09
2023-05-11T21:44:09.045Z,99184.09
2023-05-11T21:47:12.512Z,99190.56
2023-05-11T21:50:16.479Z,99190.84
2023-05-11T21:53:20.037Z,99183.72
2023-05-11T21:56:26.349Z,99193.41
2023-05-11T21:59:31.175Z,99193.47
2023-05-11T22:02:34.765Z,99193.03
2023-05-11T22:05:40.732Z,99195.00
2023-05-11T22:08:44.192Z,99191.25
2023-05-11T22:11:47.997Z,99196.34
2023-05-11T22:14:52.873Z,99196.69
2023-05-11T22:17:56.641Z,99198.63
2023-05-11T22:21:00.051Z,99198.41
2023-05-11T22:24:04.292Z,99195.31
2023-05-11T22:27:10.156Z,99199.69
2023-05-11T22:30:15.343Z,99196.28
2023-05-11T22:33:18.713Z,99202.16
2023-05-11T22:36:22.169Z,99203.66
2023-05-11T22:39:26.094Z,99194.41
2023-05-11T22:42:30.982Z,99195.25
2023-05-11T22:45:36.066Z,99199.31
2023-05-11T22:48:39.746Z,99198.44
2023-05-11T22:51:44.563Z,99195.22
2023-05-11T22:54:48.029Z,99190.84
2023-05-11T22:57:51.524Z,99195.97
2023-05-11T23:00:57.570Z,99198.34
2023-05-11T23:04:01.159Z,99200.13
2023-05-11T23:07:05.439Z,99201.81
2023-05-11T23:10:09.501Z,99197.97
2023-05-11T23:13:13.031Z,99195.53
2023-05-11T23:16:18.057Z,99194.34
2023-05-11T23:19:21.765Z,99191.50
2023-05-11T23:22:25.480Z,99189.81
2023-05-11T23:25:29.002Z,99193.47
2023-05-11T23:28:32.689Z,99192.97
2023-05-11T23:31:39.020Z,99189.91
2023-05-11T23:34:42.430Z,99182.25
2023-05-11T23:37:45.986Z,99185.56
2023-05-11T23:40:49.481Z,99180.88
2023-05-11T23:43:52.839Z,99177.78
2023-05-11T23:46:57.778Z,99179.69
2023-05-11T23:50:01.409Z,99181.63
2023-05-11T23:53:05.351Z,99177.69
2023-05-11T23:56:09.081Z,99175.88
2023-05-11T23:59:12.472Z,99179.28
